Time;durP1;ratioP1;P1;durP2;ratioP2;P2;SDS_P1;SDS_P2;PMS_P1;PMS_P2;Temp;Humidity;BMP_temperature;BMP_pressure;BME280_temperature;BME280_humidity;BME280_pressure;Samples;Min_cycle;Max_cycle;Signal;HPM_P1;HPM_P2
2022/04/02 00:00:45;;;;;;;;;;;;;;;17.69;46.69;99143.72;2105908;28;19912;-61
2022/04/02 00:01:45;;;;;;;;;;;;;;;17.68;46.65;99145.56;2107567;28;19963;-61
2022/04/02 00:02:45;;;;;;;;;;;;;;;17.69;46.47;99151.91;2107469;28;19923;-60
2022/04/02 00:03:46;;;;;;;;;;;;;;;17.69;46.80;99149.16;2098549;28;20387;-60
2022/04/02 00:04:46;;;;;;;;;;;;;;;17.69;46.82;99146.44;2098758;28;19995;-60
2022/04/02 00:05:47;;;;;;;;;;;;;;;17.68;46.65;99150.16;2101501;28;20385;-60
2022/04/02 00:06:47;;;;;;;;;;;;;;;17.69;46.53;99151.91;2104918;28;20389;-60
2022/04/02 00:07:47;;;;;;;;;;;;;;;17.67;46.72;99148.47;2106040;28;19912;-60
2022/04/02 00:08:48;;;;;;;;;;;;;;;17.67;46.58;99148.47;2107409;28;19916;-60
2022/04/02 00:09:49;;;;;;;;;;;;;;;17.68;46.47;99155.63;2106609;28;19916;-60
2022/04/02 00:10:50;;;;;;;;;;;;;;;17.67;46.57;99159.38;2107594;28;19919;-60
2022/04/02 00:11:50;;;;;;;;;;;;;;;17.67;46.74;99153.91;2101484;28;19912;-61
2022/04/02 00:12:53;;;;;;;;;;;;;;;17.66;46.64;99154.91;2102696;28;19924;-60
2022/04/02 00:13:53;;;;;;;;;;;;;;;17.66;46.64;99152.19;2098476;28;19916;-60
2022/04/02 00:14:54;;;;;;;;;;;;;;;17.65;46.56;99150.50;2098465;28;19913;-61
2022/04/02 00:15:54;;;;;;;;;;;;;;;17.64;46.66;99140.59;2107695;28;19912;-61
2022/04/02 00:16:54;;;;;;;;;;;;;;;17.65;46.60;99155.94;2099313;28;19978;-61
2022/04/02 00:17:55;;;;;;;;;;;;;;;17.64;46.69;99165.13;2093530;28;19922;-63
2022/04/02 00:18:55;;;;;;;;;;;;;;;17.64;46.72;99162.41;2089927;28;19939;-63
2022/04/02 00:19:56;;;;;;;;;;;;;;;17.63;46.72;99156.09;2091146;28;19922;-61
2022/04/02 00:20:57;;;;;;;;;;;;;;;17.63;46.58;99164.28;2080939;28;20190;-64
2022/04/02 00:21:57;;;;;;;;;;;;;;;17.63;46.61;99161.56;2082079;28;20359;-64
2022/04/02 00:24:16;;;;;;;;;;;;;;;17.62;46.77;99153.56;2087622;28;19920;-64
2022/04/02 00:25:18;;;;;;;;;;;;;;;17.63;46.55;99166.16;2092164;28;19920;-63
2022/04/02 00:26:22;;;;;;;;;;;;;;;17.63;46.71;99157.97;2080283;28;19924;-63
2022/04/02 00:27:22;;;;;;;;;;;;;;;17.62;46.76;99162.59;2067568;28;20388;-62
2022/04/02 00:28:22;;;;;;;;;;;;;;;17.62;46.84;99161.75;2082949;28;20410;-63
2022/04/02 00:29:23;;;;;;;;;;;;;;;17.62;46.86;99161.75;2085880;28;20215;-63
2022/04/02 00:30:23;;;;;;;;;;;;;;;17.60;46.65;99159.16;2084805;28;20309;-63
2022/04/02 00:31:23;;;;;;;;;;;;;;;17.60;46.69;99153.72;2090473;28;20704;-63
2022/04/02 00:32:24;;;;;;;;;;;;;;;17.60;46.83;99155.59;2090340;28;19919;-64
2022/04/02 00:33:24;;;;;;;;;;;;;;;17.60;46.80;99152.88;2085687;28;19920;-63
2022/04/02 00:34:25;;;;;;;;;;;;;;;17.58;46.86;99151.13;2093054;28;19926;-63
2022/04/02 00:35:25;;;;;;;;;;;;;;;17.60;46.60;99144.69;2091489;28;19924;-63
2022/04/02 00:36:26;;;;;;;;;;;;;;;17.57;46.94;99149.44;2089729;28;19927;-63
2022/04/02 00:37:27;;;;;;;;;;;;;;;17.57;46.70;99149.44;2085756;28;19942;-63
2022/04/02 00:38:27;;;;;;;;;;;;;;;17.57;46.71;99154.91;2085910;28;19998;-63
2022/04/02 00:39:28;;;;;;;;;;;;;;;17.56;46.88;99153.19;2079513;28;20243;-64
2022/04/02 00:40:29;;;;;;;;;;;;;;;17.55;46.84;99150.63;2075226;28;19984;-64
2022/04/02 00:41:29;;;;;;;;;;;;;;;17.55;46.98;99151.47;2084419;28;19944;-64
2022/04/02 00:42:29;;;;;;;;;;;;;;;17.54;46.87;99149.78;2090385;28;19908;-64
2022/04/02 00:43:31;;;;;;;;;;;;;;;17.54;46.98;99159.78;2090827;28;19908;-63
2022/04/02 00:44:31;;;;;;;;;;;;;;;17.54;46.81;99149.78;2090044;28;19919;-63
2022/04/02 00:45:31;;;;;;;;;;;;;;;17.53;46.82;99147.19;2087778;28;19927;-63
2022/04/02 00:46:32;;;;;;;;;;;;;;;17.51;46.83;99149.22;2092236;28;19919;-63
2022/04/02 00:47:32;;;;;;;;;;;;;;;17.51;46.95;99150.09;2089715;28;20358;-64
2022/04/02 00:48:32;;;;;;;;;;;;;;;17.52;46.95;99146.34;2085027;28;20356;-64
2022/04/02 00:49:33;;;;;;;;;;;;;;;17.50;46.72;99151.09;2088572;28;19931;-64
2022/04/02 00:50:34;;;;;;;;;;;;;;;17.50;46.94;99153.84;2087378;28;20720;-63
2022/04/02 00:51:41;;;;;;;;;;;;;;;17.49;46.83;99149.41;2092083;28;19963;-64
2022/04/02 00:52:42;;;;;;;;;;;;;;;17.48;46.99;99155.88;2089654;28;19927;-64
2022/04/02 00:53:44;;;;;;;;;;;;;;;17.49;46.91;99145.81;2089171;28;19927;-63
2022/04/02 00:54:45;;;;;;;;;;;;;;;17.48;46.94;99155.88;2087734;28;19951;-64
2022/04/02 00:55:46;;;;;;;;;;;;;;;17.48;46.91;99144.97;2087326;28;20369;-63
2022/04/02 00:56:47;;;;;;;;;;;;;;;17.48;47.00;99153.13;2095090;28;20230;-64
2022/04/02 00:57:48;;;;;;;;;;;;;;;17.47;46.91;99159.63;2091679;28;19927;-63
2022/04/02 00:58:48;;;;;;;;;;;;;;;17.48;46.92;99160.47;2081789;28;19997;-64
2022/04/02 00:59:48;;;;;;;;;;;;;;;17.48;46.77;99161.31;2080480;28;19916;-64
2022/04/02 01:00:49;;;;;;;;;;;;;;;17.47;46.80;99154.16;2090795;28;19941;-64
2022/04/02 01:01:49;;;;;;;;;;;;;;;17.47;47.16;99159.63;2090251;28;19927;-63
2022/04/02 01:02:49;;;;;;;;;;;;;;;17.47;46.92;99159.63;2091386;28;19924;-64
2022/04/02 01:03:50;;;;;;;;;;;;;;;17.47;46.73;99154.16;2089110;28;19924;-63
2022/04/02 01:04:50;;;;;;;;;;;;;;;17.47;46.91;99153.31;2083091;28;20021;-63
2022/04/02 01:05:51;;;;;;;;;;;;;;;17.47;47.14;99153.31;2083453;28;20785;-62
2022/04/02 01:06:51;;;;;;;;;;;;;;;17.47;46.80;99159.63;2090005;28;19951;-63
2022/04/02 01:07:52;;;;;;;;;;;;;;;17.46;47.00;99157.88;2090617;28;19916;-63
2022/04/02 01:08:52;;;;;;;;;;;;;;;17.46;47.00;99152.44;2081993;28;19942;-63
2022/04/02 01:09:52;;;;;;;;;;;;;;;17.47;46.84;99154.16;2081975;28;19924;-63
2022/04/02 01:10:55;;;;;;;;;;;;;;;17.46;46.79;99152.44;2089610;28;19923;-63
2022/04/02 01:11:56;;;;;;;;;;;;;;;17.47;46.67;99147.88;2090957;28;19967;-63
2022/04/02 01:12:56;;;;;;;;;;;;;;;17.47;46.81;99148.72;2089452;28;19924;-63
2022/04/02 01:13:57;;;;;;;;;;;;;;;17.47;46.72;99145.16;2092959;28;19988;-63
2022/04/02 01:14:57;;;;;;;;;;;;;;;17.47;46.82;99143.25;2091418;28;20003;-64
2022/04/02 01:15:57;;;;;;;;;;;;;;;17.47;46.71;99142.41;2089794;28;20047;-64
2022/04/02 01:16:58;;;;;;;;;;;;;;;17.46;46.66;99140.69;2090596;28;19920;-63
2022/04/02 01:17:58;;;;;;;;;;;;;;;17.47;46.42;99145.16;2090243;28;20818;-63
2022/04/02 01:18:59;;;;;;;;;;;;;;;17.46;46.63;99147.00;2092507;28;19927;-63
2022/04/02 01:20:00;;;;;;;;;;;;;;;17.46;46.59;99141.53;2086392;28;19920;-63
2022/04/02 01:21:00;;;;;;;;;;;;;;;17.47;46.54;99137.81;2084146;28;20618;-63
2022/04/02 01:22:01;;;;;;;;;;;;;;;17.46;46.49;99147.00;2088369;28;20840;-63
2022/04/02 01:23:01;;;;;;;;;;;;;;;17.47;46.67;99148.72;2089365;28;19923;-63
2022/04/02 01:24:02;;;;;;;;;;;;;;;17.47;46.66;99137.81;2090768;28;19965;-62
2022/04/02 01:25:05;;;;;;;;;;;;;;;17.47;46.54;99143.25;2090254;28;20015;-64
2022/04/02 01:26:05;;;;;;;;;;;;;;;17.46;46.47;99141.53;2090351;28;19950;-64
2022/04/02 01:27:06;;;;;;;;;;;;;;;17.47;46.57;99146.00;2091341;28;19931;-64
2022/04/02 01:28:07;;;;;;;;;;;;;;;17.48;46.55;99149.56;2090163;28;19924;-64
2022/04/02 01:29:07;;;;;;;;;;;;;;;17.47;46.32;99154.16;2081813;28;19955;-64
2022/04/02 01:30:08;;;;;;;;;;;;;;;17.45;46.38;99145.28;2079372;28;20030;-64
2022/04/02 01:31:08;;;;;;;;;;;;;;;17.46;46.34;99151.59;2089528;28;20599;-64
2022/04/02 01:32:08;;;;;;;;;;;;;;;17.46;46.39;99152.44;2088890;28;19912;-64
2022/04/02 01:33:09;;;;;;;;;;;;;;;17.46;46.41;99147.00;2087493;28;19920;-61
2022/04/02 01:34:09;;;;;;;;;;;;;;;17.46;46.32;99149.72;2087279;28;20584;-62
2022/04/02 01:35:10;;;;;;;;;;;;;;;17.46;46.39;99152.44;2089342;28;19963;-63
2022/04/02 01:36:11;;;;;;;;;;;;;;;17.45;46.72;99156.19;2090372;28;19919;-63
2022/04/02 01:37:16;;;;;;;;;;;;;;;17.44;46.44;99159.94;2091572;28;19920;-64
2022/04/02 01:38:16;;;;;;;;;;;;;;;17.44;46.38;99153.63;2087299;28;19973;-62
2022/04/02 01:39:16;;;;;;;;;;;;;;;17.45;46.65;99166.25;2087574;28;20458;-63
2022/04/02 01:40:17;;;;;;;;;;;;;;;17.43;46.51;99157.38;2090966;28;19927;-63
2022/04/02 01:41:18;;;;;;;;;;;;;;;17.43;46.62;99160.94;2081183;28;19920;-63
2022/04/02 01:42:20;;;;;;;;;;;;;;;17.43;46.56;99157.38;2088444;28;19950;-59
2022/04/02 01:43:21;;;;;;;;;;;;;;;17.41;46.56;99154.78;2107425;28;19912;-60
2022/04/02 01:44:21;;;;;;;;;;;;;;;17.41;46.43;99157.53;2107594;28;19927;-59
2022/04/02 01:45:21;;;;;;;;;;;;;;;17.40;46.76;99164.00;2107501;28;19919;-60
2022/04/02 01:46:21;;;;;;;;;;;;;;;17.40;46.76;99158.56;2102308;28;20330;-60
2022/04/02 01:47:22;;;;;;;;;;;;;;;17.39;46.70;99167.72;2099017;28;19912;-60
2022/04/02 01:48:23;;;;;;;;;;;;;;;17.39;46.69;99167.72;2099165;28;19918;-61
2022/04/02 01:49:23;;;;;;;;;;;;;;;17.38;46.69;99166.03;2099062;28;19940;-59
2022/04/02 01:50:23;;;;;;;;;;;;;;;17.37;46.79;99150.72;2099021;28;19916;-59
2022/04/02 01:51:24;;;;;;;;;;;;;;;17.37;46.84;99164.34;2098964;28;19954;-60
2022/04/02 01:52:24;;;;;;;;;;;;;;;17.36;46.74;99163.44;2099194;28;19919;-59
2022/04/02 01:53:25;;;;;;;;;;;;;;;17.36;46.97;99165.31;2099052;28;20410;-60
2022/04/02 01:54:25;;;;;;;;;;;;;;;17.35;46.75;99164.47;2098116;28;19912;-60
2022/04/02 01:55:26;;;;;;;;;;;;;;;17.35;46.66;99155.47;2098525;28;19970;-59
2022/04/02 01:56:26;;;;;;;;;;;;;;;17.34;46.68;99149.16;2099100;28;19912;-59
2022/04/02 01:57:26;;;;;;;;;;;;;;;17.35;46.72;99160.91;2098728;28;19927;-59
2022/04/02 01:58:27;;;;;;;;;;;;;;;17.35;46.71;99155.47;2098954;28;19912;-61
2022/04/02 01:59:27;;;;;;;;;;;;;;;17.34;46.73;99156.47;2098885;28;19951;-60
2022/04/02 02:00:27;;;;;;;;;;;;;;;17.33;46.68;99152.03;2103785;28;19919;-60
2022/04/02 02:01:28;;;;;;;;;;;;;;;17.34;46.49;99160.06;2107192;28;19912;-59
2022/04/02 02:02:28;;;;;;;;;;;;;;;17.34;46.52;99160.06;2107521;28;19961;-61
2022/04/02 02:03:28;;;;;;;;;;;;;;;17.34;46.65;99164.63;2107292;28;19912;-60
2022/04/02 02:04:28;;;;;;;;;;;;;;;17.34;46.67;99164.63;2107242;28;19912;-60
2022/04/02 02:05:29;;;;;;;;;;;;;;;17.33;46.86;99158.34;2107433;28;19912;-60
2022/04/02 02:06:31;;;;;;;;;;;;;;;17.31;46.65;99154.06;2107270;28;19912;-60
2022/04/02 02:07:32;;;;;;;;;;;;;;;17.32;46.82;99158.47;2098177;28;20030;-59
2022/04/02 02:08:32;;;;;;;;;;;;;;;17.31;46.68;99154.06;2098354;28;19939;-61
2022/04/02 02:09:33;;;;;;;;;;;;;;;17.31;46.70;99154.06;2107492;28;19912;-61
2022/04/02 02:10:34;;;;;;;;;;;;;;;17.31;46.68;99159.50;2107272;28;20069;-59
2022/04/02 02:11:34;;;;;;;;;;;;;;;17.30;46.44;99152.38;2107149;28;19912;-61
2022/04/02 02:12:34;;;;;;;;;;;;;;;17.30;46.77;99157.81;2107041;28;20017;-60
2022/04/02 02:13:34;;;;;;;;;;;;;;;17.29;46.70;99153.38;2107251;28;20351;-61
2022/04/02 02:14:35;;;;;;;;;;;;;;;17.30;46.77;99147.78;2107379;28;19958;-61
2022/04/02 02:15:35;;;;;;;;;;;;;;;17.30;46.75;99150.50;2107245;28;19920;-60
2022/04/02 02:16:35;;;;;;;;;;;;;;;17.29;46.55;99156.09;2107275;28;19913;-60
2022/04/02 02:17:36;;;;;;;;;;;;;;;17.29;46.56;99146.03;2107184;28;19912;-61
2022/04/02 02:18:36;;;;;;;;;;;;;;;17.30;46.64;99146.91;2107128;28;19951;-59
2022/04/02 02:19:36;;;;;;;;;;;;;;;17.30;46.52;99146.91;2107279;28;19923;-59
2022/04/02 02:20:37;;;;;;;;;;;;;;;17.30;46.71;99133.31;2107274;28;19912;-60
2022/04/02 02:21:37;;;;;;;;;;;;;;;17.31;46.66;99148.63;2107377;28;19960;-60
2022/04/02 02:22:41;;;;;;;;;;;;;;;17.30;46.53;99142.31;2107198;28;19954;-60
2022/04/02 02:23:41;;;;;;;;;;;;;;;17.30;46.45;99147.78;2098187;28;19916;-59
2022/04/02 02:24:42;;;;;;;;;;;;;;;17.30;46.58;99147.78;2089965;28;19912;-60
2022/04/02 02:25:42;;;;;;;;;;;;;;;17.30;46.63;99139.59;2098194;28;20382;-60
2022/04/02 02:26:42;;;;;;;;;;;;;;;17.31;46.51;99144.00;2107221;28;19912;-59
2022/04/02 02:27:45;;;;;;;;;;;;;;;17.32;46.46;99139.41;2098267;28;19920;-60
2022/04/02 02:28:45;;;;;;;;;;;;;;;17.32;46.57;99144.88;2098566;28;19912;-61
2022/04/02 02:29:45;;;;;;;;;;;;;;;17.31;46.71;99138.56;2107018;28;19959;-59
2022/04/02 02:30:46;;;;;;;;;;;;;;;17.32;46.67;99142.13;2107463;28;19969;-59
2022/04/02 02:31:47;;;;;;;;;;;;;;;17.33;46.46;99152.03;2107128;28;19912;-60
2022/04/02 02:32:47;;;;;;;;;;;;;;;17.33;46.55;99152.88;2106988;28;19934;-60
2022/04/02 02:36:27;;;;;;;;;;;;;;;17.33;46.52;99152.88;2107412;28;19920;-60
2022/04/02 02:37:30;;;;;;;;;;;;;;;17.33;46.58;99152.03;2107413;28;19912;-59
2022/04/02 02:38:30;;;;;;;;;;;;;;;17.33;46.34;99157.50;2107319;28;20010;-60
2022/04/02 02:39:30;;;;;;;;;;;;;;;17.32;46.48;99162.09;2107021;28;19916;-61
2022/04/02 02:40:31;;;;;;;;;;;;;;;17.31;46.43;99163.09;2107356;28;19912;-60
2022/04/02 02:41:31;;;;;;;;;;;;;;;17.31;46.28;99159.50;2107267;28;20267;-59
2022/04/02 02:42:31;;;;;;;;;;;;;;;17.30;46.32;99163.25;2107163;28;19912;-60
2022/04/02 02:43:31;;;;;;;;;;;;;;;17.31;46.37;99164.97;2107196;28;20243;-61
2022/04/02 02:44:32;;;;;;;;;;;;;;;17.30;46.51;99175.00;2107055;28;19912;-60
2022/04/02 02:45:32;;;;;;;;;;;;;;;17.30;46.66;99179.59;2107179;28;20045;-61
2022/04/02 02:46:33;;;;;;;;;;;;;;;17.30;46.50;99168.72;2107131;28;19912;-61
2022/04/02 02:47:33;;;;;;;;;;;;;;;17.28;46.38;99165.28;2107130;28;19923;-60
2022/04/02 02:48:34;;;;;;;;;;;;;;;17.28;46.45;99165.28;2107058;28;19923;-61
2022/04/02 02:49:34;;;;;;;;;;;;;;;17.27;46.41;99166.28;2107031;28;19981;-60
2022/04/02 02:50:35;;;;;;;;;;;;;;;17.27;46.38;99169.00;2107158;28;20362;-60
2022/04/02 02:51:35;;;;;;;;;;;;;;;17.27;46.50;99169.00;2107042;28;19935;-60
2022/04/02 02:52:36;;;;;;;;;;;;;;;17.26;46.52;99170.03;2098048;28;19920;-61
2022/04/02 02:53:37;;;;;;;;;;;;;;;17.25;46.55;99165.63;2089921;28;19959;-60
2022/04/02 02:54:37;;;;;;;;;;;;;;;17.25;46.49;99166.47;2098299;28;19940;-59
2022/04/02 02:55:37;;;;;;;;;;;;;;;17.23;46.29;99162.19;2098147;28;19912;-59
2022/04/02 02:56:38;;;;;;;;;;;;;;;17.25;46.41;99171.06;2098186;28;20275;-60
2022/04/02 02:57:39;;;;;;;;;;;;;;;17.25;46.34;99171.06;2106909;28;20375;-61
2022/04/02 02:58:40;;;;;;;;;;;;;;;17.23;46.30;99162.19;2098237;28;20432;-60
2022/04/02 02:59:40;;;;;;;;;;;;;;;17.23;46.30;99164.91;2098021;28;20349;-59
2022/04/02 03:00:41;;;;;;;;;;;;;;;17.24;46.60;99170.19;2107007;28;19912;-60
2022/04/02 03:01:41;;;;;;;;;;;;;;;17.24;46.41;99175.63;2107176;28;19912;-60
2022/04/02 03:02:42;;;;;;;;;;;;;;;17.24;46.24;99175.63;2107058;28;19912;-60
2022/04/02 03:03:42;;;;;;;;;;;;;;;17.24;46.32;99180.22;2108445;28;19912;-60
2022/04/02 03:04:42;;;;;;;;;;;;;;;17.23;46.42;99178.53;2108620;28;20382;-61
2022/04/02 03:05:43;;;;;;;;;;;;;;;17.23;46.63;99178.53;2108576;28;20286;-59
2022/04/02 03:06:43;;;;;;;;;;;;;;;17.22;46.46;99183.13;2108418;28;19916;-60
2022/04/02 03:07:50;;;;;;;;;;;;;;;17.22;46.59;99174.97;2108509;28;19978;-59
2022/04/02 03:08:50;;;;;;;;;;;;;;;17.22;46.60;99180.41;2108625;28;20286;-60
2022/04/02 03:09:51;;;;;;;;;;;;;;;17.21;46.38;99186.00;2108531;28;19974;-60
2022/04/02 03:10:52;;;;;;;;;;;;;;;17.20;46.40;99185.16;2108550;28;19912;-59
2022/04/02 03:11:52;;;;;;;;;;;;;;;17.20;46.42;99184.28;2108582;28;20003;-61
2022/04/02 03:12:53;;;;;;;;;;;;;;;17.19;46.18;99185.31;2099420;28;19912;-62
2022/04/02 03:13:53;;;;;;;;;;;;;;;17.20;46.51;99189.72;2099616;28;19959;-61
2022/04/02 03:14:54;;;;;;;;;;;;;;;17.18;46.28;99187.19;2108577;28;20374;-61
2022/04/02 03:15:55;;;;;;;;;;;;;;;17.18;46.39;99191.78;2108686;28;19912;-61
2022/04/02 03:16:55;;;;;;;;;;;;;;;17.18;46.27;99191.78;2100466;28;19971;-61
2022/04/02 03:18:01;;;;;;;;;;;;;;;17.19;46.33;99193.47;2100092;28;19920;-60
2022/04/02 03:19:02;;;;;;;;;;;;;;;17.19;46.38;99188.03;2099932;28;19912;-60
2022/04/02 03:20:04;;;;;;;;;;;;;;;17.18;46.33;99191.78;2105032;28;20374;-59
2022/04/02 03:21:04;;;;;;;;;;;;;;;17.17;46.68;99196.34;2102677;28;19916;-60
2022/04/02 03:22:04;;;;;;;;;;;;;;;17.18;46.58;99191.78;2099940;28;19961;-59
2022/04/02 03:23:05;;;;;;;;;;;;;;;17.19;46.50;99191.59;2100124;28;19967;-60
2022/04/02 03:24:05;;;;;;;;;;;;;;;17.19;46.47;99193.47;2100026;28;19951;-60
2022/04/02 03:25:10;;;;;;;;;;;;;;;17.20;46.69;99192.44;2100032;28;19923;-60
2022/04/02 03:26:10;;;;;;;;;;;;;;;17.19;46.51;99193.47;2091072;28;19984;-61
2022/04/02 03:27:10;;;;;;;;;;;;;;;17.21;46.46;99191.44;2091208;28;19956;-60
2022/04/02 03:28:12;;;;;;;;;;;;;;;17.20;46.63;99190.59;2099485;28;19916;-62
2022/04/02 03:29:13;;;;;;;;;;;;;;;17.21;46.58;99197.75;2099911;28;19913;-60
2022/04/02 03:30:15;;;;;;;;;;;;;;;17.21;46.67;99197.75;2091042;28;20011;-60
2022/04/02 03:31:16;;;;;;;;;;;;;;;17.22;46.68;99193.16;2091279;28;19913;-60
2022/04/02 03:32:16;;;;;;;;;;;;;;;17.23;46.80;99197.59;2100326;28;19952;-60
2022/04/02 03:33:16;;;;;;;;;;;;;;;17.23;46.65;99194.88;2099992;28;19913;-60
2022/04/02 03:34:17;;;;;;;;;;;;;;;17.24;46.44;99196.56;2099683;28;20284;-59
2022/04/02 03:35:18;;;;;;;;;;;;;;;17.24;46.46;99193.84;2100073;28;19918;-59
2022/04/02 03:36:18;;;;;;;;;;;;;;;17.24;46.68;99196.56;2107072;28;19919;-60
2022/04/02 03:37:18;;;;;;;;;;;;;;;17.23;46.57;99194.88;2108561;28;20359;-60
2022/04/02 03:38:19;;;;;;;;;;;;;;;17.24;46.72;99202.03;2108346;28;19912;-60
2022/04/02 03:39:19;;;;;;;;;;;;;;;17.23;46.68;99194.88;2108276;28;20007;-60
2022/04/02 03:40:21;;;;;;;;;;;;;;;17.23;46.77;99203.03;2108099;28;19919;-60
2022/04/02 03:41:23;;;;;;;;;;;;;;;17.22;46.59;99194.03;2108145;28;19926;-61
2022/04/02 03:42:23;;;;;;;;;;;;;;;17.22;46.59;99196.75;2108204;28;19955;-60
2022/04/02 03:43:23;;;;;;;;;;;;;;;17.22;46.51;99199.47;2108541;28;19916;-60
2022/04/02 03:44:24;;;;;;;;;;;;;;;17.22;46.70;99204.03;2100190;28;19963;-60
2022/04/02 03:45:24;;;;;;;;;;;;;;;17.22;46.49;99193.16;2099101;28;19913;-61
2022/04/02 03:47:45;;;;;;;;;;;;;;;17.22;46.41;99193.16;2102067;28;19917;-62
2022/04/02 03:48:45;;;;;;;;;;;;;;;17.21;46.66;99195.03;2108264;28;20346;-59
2022/04/02 03:49:46;;;;;;;;;;;;;;;17.21;46.63;99196.91;2108222;28;19912;-61
2022/04/02 03:50:46;;;;;;;;;;;;;;;17.21;46.63;99191.44;2099236;28;19913;-61
2022/04/02 03:51:46;;;;;;;;;;;;;;;17.20;46.58;99192.44;2099248;28;20359;-61
2022/04/02 03:52:47;;;;;;;;;;;;;;;17.20;46.68;99192.44;2108204;28;20373;-59
2022/04/02 03:53:47;;;;;;;;;;;;;;;17.19;46.66;99193.47;2108003;28;19912;-59
2022/04/02 03:54:47;;;;;;;;;;;;;;;17.19;46.54;99193.47;2108303;28;19912;-59
2022/04/02 03:55:48;;;;;;;;;;;;;;;17.19;46.60;99188.03;2106615;28;20351;-61
2022/04/02 03:56:48;;;;;;;;;;;;;;;17.18;46.75;99197.22;2099776;28;19935;-60
2022/04/02 03:57:49;;;;;;;;;;;;;;;17.18;46.53;99197.22;2099745;28;19916;-60
2022/04/02 03:58:50;;;;;;;;;;;;;;;17.18;46.61;99192.63;2099969;28;19919;-60
2022/04/02 03:59:50;;;;;;;;;;;;;;;17.18;46.50;99195.34;2099670;28;19970;-59
2022/04/02 04:00:52;;;;;;;;;;;;;;;17.18;46.46;99198.06;2101426;28;19927;-60
2022/04/02 04:01:52;;;;;;;;;;;;;;;17.18;46.55;99194.50;2108144;28;19995;-60
2022/04/02 04:02:53;;;;;;;;;;;;;;;17.18;46.47;99202.66;2108109;28;19916;-60
2022/04/02 04:03:53;;;;;;;;;;;;;;;17.18;46.58;99205.41;2108080;28;19961;-59
2022/04/02 04:04:53;;;;;;;;;;;;;;;17.17;46.44;99196.34;2107214;28;19954;-62
2022/04/02 04:05:53;;;;;;;;;;;;;;;17.17;46.54;99204.50;2102021;28;19920;-61
2022/04/02 04:06:54;;;;;;;;;;;;;;;17.19;46.51;99201.66;2107715;28;19916;-62
2022/04/02 04:07:54;;;;;;;;;;;;;;;17.20;46.48;99206.94;2107341;28;19959;-63
2022/04/02 04:08:56;;;;;;;;;;;;;;;17.21;46.44;99205.06;2109814;28;20378;-63
2022/04/02 04:09:59;;;;;;;;;;;;;;;17.21;46.68;99207.78;2106477;28;20006;-62
2022/04/02 04:11:00;;;;;;;;;;;;;;;17.23;46.82;99205.78;2104696;28;19912;-64
2022/04/02 04:12:00;;;;;;;;;;;;;;;17.23;46.42;99211.22;2107385;28;20207;-64
2022/04/02 04:13:01;;;;;;;;;;;;;;;17.21;46.57;99202.34;2104714;28;19924;-63
2022/04/02 04:14:01;;;;;;;;;;;;;;;17.22;46.81;99206.75;2102972;28;19916;-62
2022/04/02 04:15:03;;;;;;;;;;;;;;;17.22;46.54;99209.50;2100618;28;19922;-62
2022/04/02 04:16:03;;;;;;;;;;;;;;;17.22;46.54;99214.94;2092464;28;19959;-62
2022/04/02 04:17:04;;;;;;;;;;;;;;;17.21;46.62;99214.09;2093104;28;19936;-62
2022/04/02 04:18:04;;;;;;;;;;;;;;;17.22;46.43;99214.94;2103009;28;20522;-61
2022/04/02 04:19:04;;;;;;;;;;;;;;;17.22;46.68;99209.50;2102751;28;19970;-61
2022/04/02 04:20:05;;;;;;;;;;;;;;;17.23;46.40;99205.78;2100666;28;19930;-61
2022/04/02 04:21:05;;;;;;;;;;;;;;;17.23;46.74;99211.22;2100799;28;19942;-62
2022/04/02 04:22:06;;;;;;;;;;;;;;;17.23;46.75;99216.66;2106172;28;19928;-61
2022/04/02 04:23:07;;;;;;;;;;;;;;;17.23;46.74;99219.38;2106098;28;20309;-62
2022/04/02 04:24:08;;;;;;;;;;;;;;;17.23;46.58;99212.06;2106846;28;19955;-61
2022/04/02 04:25:10;;;;;;;;;;;;;;;17.23;46.75;99206.63;2102828;28;20001;-61
2022/04/02 04:26:14;;;;;;;;;;;;;;;17.23;46.67;99212.06;2099647;28;19961;-61
2022/04/02 04:27:14;;;;;;;;;;;;;;;17.24;46.84;99207.47;2100506;28;19921;-61
2022/04/02 04:28:14;;;;;;;;;;;;;;;17.24;46.96;99210.19;2103833;28;19912;-61
2022/04/02 04:29:15;;;;;;;;;;;;;;;17.25;46.87;99211.91;2101306;28;19923;-63
2022/04/02 04:30:15;;;;;;;;;;;;;;;17.27;46.69;99205.28;2099100;28;19913;-62
2022/04/02 04:31:17;;;;;;;;;;;;;;;17.28;46.88;99214.31;2097086;28;20455;-62
2022/04/02 04:32:17;;;;;;;;;;;;;;;17.28;46.64;99212.44;2101862;28;19946;-62
2022/04/02 04:33:18;;;;;;;;;;;;;;;17.31;46.87;99208.53;2102151;28;19955;-62
2022/04/02 04:34:18;;;;;;;;;;;;;;;17.32;46.62;99215.69;2101875;28;19920;-62
2022/04/02 04:35:19;;;;;;;;;;;;;;;17.33;46.73;99212.81;2094432;28;20037;-62
2022/04/02 04:36:19;;;;;;;;;;;;;;;17.35;46.59;99223.56;2083316;28;20000;-63
2022/04/02 04:37:19;;;;;;;;;;;;;;;17.35;46.82;99221.69;2093766;28;20436;-61
2022/04/02 04:38:20;;;;;;;;;;;;;;;17.36;46.76;99215.22;2092833;28;19912;-62
2022/04/02 04:39:20;;;;;;;;;;;;;;;17.37;46.67;99224.25;2091485;28;19962;-61
2022/04/02 04:40:21;;;;;;;;;;;;;;;17.38;46.78;99225.13;2092129;28;20378;-62
2022/04/02 04:41:22;;;;;;;;;;;;;;;17.36;46.84;99223.38;2093329;28;20004;-62
2022/04/02 04:42:22;;;;;;;;;;;;;;;17.38;46.83;99231.41;2102465;28;19916;-62
2022/04/02 04:43:24;;;;;;;;;;;;;;;17.36;46.87;99223.38;2102807;28;19920;-61
2022/04/02 04:44:24;;;;;;;;;;;;;;;17.38;46.70;99236.84;2093278;28;19913;-62
2022/04/02 04:45:24;;;;;;;;;;;;;;;17.38;46.81;99236.84;2094200;28;19913;-62
2022/04/02 04:46:25;;;;;;;;;;;;;;;17.38;46.52;99236.84;2091439;28;19968;-62
2022/04/02 04:47:25;;;;;;;;;;;;;;;17.37;46.74;99232.44;2090978;28;20792;-62
2022/04/02 04:48:25;;;;;;;;;;;;;;;17.36;46.76;99234.28;2109087;28;19916;-63
2022/04/02 04:49:25;;;;;;;;;;;;;;;17.38;46.74;99233.28;2103545;28;19912;-61
2022/04/02 04:50:29;;;;;;;;;;;;;;;17.37;46.75;99235.16;2102837;28;19921;-62
2022/04/02 04:51:29;;;;;;;;;;;;;;;17.37;46.83;99240.59;2097277;28;19927;-63
2022/04/02 04:52:30;;;;;;;;;;;;;;;17.36;46.76;99239.72;2101728;28;19915;-61
2022/04/02 04:53:34;;;;;;;;;;;;;;;17.37;46.81;99246.06;2101212;28;19923;-61
2022/04/02 04:54:34;;;;;;;;;;;;;;;17.37;46.96;99248.78;2101062;28;19912;-62
2022/04/02 04:55:34;;;;;;;;;;;;;;;17.36;46.87;99245.19;2104772;28;19916;-62
2022/04/02 04:56:35;;;;;;;;;;;;;;;17.36;46.73;99252.50;2105843;28;19922;-62
2022/04/02 04:57:35;;;;;;;;;;;;;;;17.37;46.97;99248.78;2101758;28;20315;-63
2022/04/02 04:58:36;;;;;;;;;;;;;;;17.36;46.79;99249.78;2103690;28;20391;-62
2022/04/02 04:59:36;;;;;;;;;;;;;;;17.35;46.65;99246.19;2100659;28;19924;-62
2022/04/02 05:00:37;;;;;;;;;;;;;;;17.37;46.84;99251.50;2103895;28;20298;-62
2022/04/02 05:01:37;;;;;;;;;;;;;;;17.36;46.82;99252.50;2100577;28;20487;-63
2022/04/02 05:02:38;;;;;;;;;;;;;;;17.36;46.73;99247.06;2103812;28;20590;-62
2022/04/02 05:03:39;;;;;;;;;;;;;;;17.35;47.06;99248.94;2101559;28;19960;-62
2022/04/02 05:04:39;;;;;;;;;;;;;;;17.36;46.97;99260.66;2104037;28;19918;-62
2022/04/02 05:05:40;;;;;;;;;;;;;;;17.35;47.05;99248.09;2103695;28;19916;-62
2022/04/02 05:06:41;;;;;;;;;;;;;;;17.35;46.95;99253.53;2101253;28;20608;-62
2022/04/02 05:07:41;;;;;;;;;;;;;;;17.35;46.67;99259.81;2104095;28;19928;-62
2022/04/02 05:08:42;;;;;;;;;;;;;;;17.35;47.02;99258.97;2106956;28;20222;-61
2022/04/02 05:09:42;;;;;;;;;;;;;;;17.35;46.88;99250.81;2108723;28;20451;-62
2022/04/02 05:10:43;;;;;;;;;;;;;;;17.33;46.94;99261.84;2104384;28;19938;-61
2022/04/02 05:11:43;;;;;;;;;;;;;;;17.32;46.87;99259.28;2100601;28;19920;-63
2022/04/02 05:12:44;;;;;;;;;;;;;;;17.33;46.95;99263.72;2105179;28;19958;-62
2022/04/02 05:13:45;;;;;;;;;;;;;;;17.33;46.88;99266.44;2102495;28;19916;-61
2022/04/02 05:14:45;;;;;;;;;;;;;;;17.34;47.07;99259.97;2102250;28;19916;-61
2022/04/02 05:15:46;;;;;;;;;;;;;;;17.36;46.91;99266.13;2102512;28;19922;-62
2022/04/02 05:16:46;;;;;;;;;;;;;;;17.36;46.90;99266.97;2100315;28;20394;-62
2022/04/02 05:17:47;;;;;;;;;;;;;;;17.37;46.75;99267.84;2096303;28;19996;-62
2022/04/02 05:18:47;;;;;;;;;;;;;;;17.38;46.82;99271.41;2097075;28;19917;-61
2022/04/02 05:19:48;;;;;;;;;;;;;;;17.40;46.59;99270.25;2097123;28;19921;-61
2022/04/02 05:20:48;;;;;;;;;;;;;;;17.42;46.59;99279.13;2095356;28;19970;-61
2022/04/02 05:21:49;;;;;;;;;;;;;;;17.43;46.43;99267.19;2108250;28;19931;-61